createdAt,value
2022-10-22T00:00:02.341Z,83.31
2022-10-22T00:01:02.398Z,83.21
2022-10-22T00:02:02.475Z,83.21
2022-10-22T00:03:02.671Z,83.11
2022-10-22T00:04:02.641Z,83.11
2022-10-22T00:05:02.726Z,83.11
2022-10-22T00:06:02.782Z,83.01
2022-10-22T00:07:02.848Z,83.01
2022-10-22T00:08:02.935Z,82.87
2022-10-22T00:09:03.145Z,82.76
2022-10-22T00:10:24.138Z,82.76
2022-10-22T00:11:03.201Z,82.67
2022-10-22T00:12:03.292Z,82.56
2022-10-22T00:13:03.393Z,82.56
2022-10-22T00:14:03.493Z,82.56
2022-10-22T00:15:03.591Z,82.46
2022-10-22T00:16:03.632Z,82.46
2022-10-22T00:17:05.850Z,82.46
2022-10-22T00:18:03.822Z,82.46
2022-10-22T00:19:03.866Z,82.36
2022-10-22T00:20:03.975Z,82.36
2022-10-22T00:21:04.038Z,82.36
2022-10-22T00:22:04.126Z,82.26
2022-10-22T00:23:04.164Z,82.26
2022-10-22T00:24:04.255Z,82.26
2022-10-22T00:25:04.431Z,82.30
2022-10-22T00:26:04.407Z,82.30
2022-10-22T00:27:04.500Z,82.30
2022-10-22T00:28:04.564Z,82.30
2022-10-22T00:29:04.679Z,82.40
2022-10-22T00:30:04.779Z,82.50
2022-10-22T00:31:04.848Z,82.50
2022-10-22T00:32:04.945Z,82.50
2022-10-22T00:33:05.054Z,82.50
2022-10-22T00:34:05.141Z,82.40
2022-10-22T00:35:05.245Z,82.50
2022-10-22T00:36:05.289Z,82.40
2022-10-22T00:37:05.393Z,82.40
2022-10-22T00:38:05.458Z,82.40
2022-10-22T00:39:05.550Z,82.40
2022-10-22T00:40:05.664Z,82.40
2022-10-22T00:41:05.735Z,82.36
2022-10-22T00:42:05.810Z,82.36
2022-10-22T00:43:05.958Z,82.36
2022-10-22T00:44:06.003Z,82.36
2022-10-22T00:45:06.074Z,82.36
2022-10-22T00:46:06.131Z,82.26
2022-10-22T00:47:06.272Z,82.26
2022-10-22T00:48:06.317Z,82.26
2022-10-22T00:49:06.409Z,82.26
2022-10-22T00:50:06.559Z,82.26
2022-10-22T00:51:06.585Z,82.26
2022-10-22T00:52:06.695Z,82.16
2022-10-22T00:53:06.728Z,82.16
2022-10-22T00:54:06.819Z,82.16
2022-10-22T00:55:06.942Z,82.16
2022-10-22T00:56:07.053Z,82.16
2022-10-22T00:57:07.086Z,82.16
2022-10-22T00:58:07.146Z,82.16
2022-10-22T01:00:07.332Z,82.16
2022-10-22T01:01:07.467Z,82.16
2022-10-22T01:02:07.481Z,82.16
2022-10-22T01:03:07.533Z,82.16
2022-10-22T01:04:07.681Z,82.16
2022-10-22T01:05:07.793Z,82.16
2022-10-22T01:06:07.796Z,82.16
2022-10-22T01:07:07.904Z,82.16
2022-10-22T01:08:08.014Z,82.06
2022-10-22T01:09:08.090Z,82.06
2022-10-22T01:10:08.130Z,82.06
2022-10-22T01:11:08.156Z,82.06
2022-10-22T01:12:08.212Z,82.06
2022-10-22T01:13:08.347Z,81.96
2022-10-22T01:14:08.402Z,82.06
2022-10-22T01:15:08.517Z,82.06
2022-10-22T01:16:08.582Z,82.10
2022-10-22T01:17:08.685Z,81.39
2022-10-22T01:18:08.726Z,80.88
2022-10-22T01:19:08.834Z,80.68
2022-10-22T01:20:08.897Z,80.68
2022-10-22T01:21:09.017Z,80.38
2022-10-22T01:22:09.068Z,79.87
2022-10-22T01:23:09.153Z,79.77
2022-10-22T01:24:09.282Z,79.71
2022-10-22T01:25:09.425Z,78.69
2022-10-22T01:26:09.451Z,78.69
2022-10-22T01:27:09.510Z,78.39
2022-10-22T01:28:09.553Z,78.49
2022-10-22T01:29:09.641Z,78.73
2022-10-22T01:30:09.807Z,78.63
2022-10-22T01:31:09.827Z,78.63
2022-10-22T01:32:09.883Z,78.83
2022-10-22T01:33:09.997Z,79.13
2022-10-22T01:34:10.033Z,79.34
2022-10-22T01:35:10.135Z,79.34
2022-10-22T01:36:10.239Z,79.34
2022-10-22T01:37:10.288Z,79.44
2022-10-22T01:38:10.409Z,79.64
2022-10-22T01:39:10.511Z,79.64
2022-10-22T01:40:10.573Z,79.68
2022-10-22T01:41:10.696Z,79.74
2022-10-22T01:42:10.737Z,79.74
2022-10-22T01:43:10.802Z,79.85
2022-10-22T01:44:10.927Z,79.74
2022-10-22T01:45:11.001Z,79.54
2022-10-22T01:46:11.088Z,79.54
2022-10-22T01:47:11.159Z,79.34
2022-10-22T01:48:11.202Z,79.27
2022-10-22T01:49:11.320Z,79.17
2022-10-22T01:50:11.421Z,79.07
2022-10-22T01:51:11.465Z,79.07
2022-10-22T01:52:11.514Z,79.07
2022-10-22T01:53:11.603Z,79.17
2022-10-22T01:54:11.742Z,79.07
2022-10-22T01:55:11.837Z,79.07
2022-10-22T01:56:11.841Z,79.07
2022-10-22T01:57:11.934Z,78.87
2022-10-22T01:58:12.029Z,78.66
2022-10-22T01:59:12.065Z,78.46
2022-10-22T02:00:12.220Z,78.46
2022-10-22T02:01:12.375Z,78.46
2022-10-22T02:02:12.378Z,78.36
2022-10-22T02:03:12.426Z,78.16
2022-10-22T02:04:12.531Z,78.30
2022-10-22T02:05:12.666Z,78.40
2022-10-22T02:06:12.726Z,78.40
2022-10-22T02:07:12.793Z,78.50
2022-10-22T02:08:12.872Z,78.60
2022-10-22T02:09:13.095Z,78.70
2022-10-22T02:10:13.014Z,78.80
2022-10-22T02:11:13.082Z,78.91
2022-10-22T02:12:13.140Z,79.11
2022-10-22T02:13:13.262Z,79.21
2022-10-22T02:14:13.346Z,79.31
2022-10-22T02:15:13.431Z,79.51
2022-10-22T02:16:13.499Z,79.61
2022-10-22T02:17:13.564Z,79.72
2022-10-22T02:18:13.632Z,79.82
2022-10-22T02:19:13.696Z,79.82
2022-10-22T02:20:13.825Z,79.82
2022-10-22T02:21:13.867Z,79.82
2022-10-22T02:22:13.951Z,79.82
2022-10-22T02:23:13.992Z,79.78
2022-10-22T02:24:14.103Z,79.68
2022-10-22T02:25:14.234Z,79.68
2022-10-22T02:26:14.249Z,79.68
2022-10-22T02:27:14.354Z,79.68
2022-10-22T02:28:14.434Z,79.68
2022-10-22T02:29:14.474Z,79.68
2022-10-22T02:31:14.641Z,79.78
2022-10-22T02:32:14.712Z,79.78
2022-10-22T02:33:14.799Z,79.78
2022-10-22T02:34:14.891Z,79.78
2022-10-22T02:35:14.991Z,79.78
2022-10-22T02:36:15.080Z,79.68
2022-10-22T02:37:15.137Z,79.68
2022-10-22T02:38:15.243Z,79.68
2022-10-22T02:40:15.426Z,79.68
2022-10-22T02:41:15.472Z,79.58
2022-10-22T02:42:15.579Z,79.38
2022-10-22T02:43:15.638Z,79.38
2022-10-22T02:44:15.772Z,79.38
2022-10-22T02:45:15.859Z,79.38
2022-10-22T02:46:15.925Z,79.27
2022-10-22T02:47:15.999Z,79.27
2022-10-22T02:48:16.136Z,79.38
2022-10-22T02:49:16.180Z,79.38
2022-10-22T02:50:16.277Z,79.38
2022-10-22T02:51:16.374Z,79.27
2022-10-22T02:52:16.459Z,79.17
2022-10-22T02:53:16.559Z,79.07
2022-10-22T02:54:16.694Z,79.07
2022-10-22T02:55:16.770Z,78.97
2022-10-22T02:56:16.808Z,78.97
2022-10-22T02:57:16.931Z,78.87
2022-10-22T02:58:17.024Z,78.87
2022-10-22T02:59:17.095Z,78.87
2022-10-22T03:00:17.175Z,78.97
2022-10-22T03:01:17.338Z,79.07
2022-10-22T03:02:17.317Z,79.17
2022-10-22T03:03:17.395Z,79.27
2022-10-22T03:04:17.449Z,79.38
2022-10-22T03:05:17.559Z,79.41
2022-10-22T03:06:17.656Z,79.47
2022-10-22T03:07:17.685Z,79.58
2022-10-22T03:08:17.784Z,79.92
2022-10-22T03:09:21.298Z,80.12
2022-10-22T03:10:18.052Z,79.72
2022-10-22T03:11:18.053Z,79.72
2022-10-22T03:12:18.102Z,79.72
2022-10-22T03:13:18.232Z,79.72
2022-10-22T03:14:18.402Z,79.51
2022-10-22T03:15:18.498Z,79.51
2022-10-22T03:16:18.473Z,79.51
2022-10-22T03:17:18.599Z,79.82
2022-10-22T03:18:18.640Z,79.72
2022-10-22T03:19:18.734Z,79.92
2022-10-22T03:20:18.847Z,79.92
2022-10-22T03:21:18.902Z,80.22
2022-10-22T03:22:19.021Z,80.26
2022-10-22T03:23:19.072Z,80.46
2022-10-22T03:24:19.187Z,80.36
2022-10-22T03:25:19.280Z,80.46
2022-10-22T03:26:19.341Z,80.26
2022-10-22T03:27:19.430Z,80.26
2022-10-22T03:28:19.535Z,80.57
2022-10-22T03:29:19.599Z,80.66
2022-10-22T03:30:19.666Z,80.57
2022-10-22T03:31:19.798Z,80.57
2022-10-22T03:32:19.822Z,80.66
2022-10-22T03:33:19.941Z,80.57
2022-10-22T03:34:20.032Z,80.66
2022-10-22T03:35:20.114Z,80.57
2022-10-22T03:36:20.193Z,80.66
2022-10-22T03:37:20.256Z,80.66
2022-10-22T03:38:20.349Z,80.87
2022-10-22T03:39:20.439Z,80.66
2022-10-22T03:40:20.606Z,80.66
2022-10-22T03:41:20.600Z,80.66
2022-10-22T03:42:20.690Z,80.66
2022-10-22T03:43:20.796Z,80.66
2022-10-22T03:44:20.857Z,80.66
2022-10-22T03:45:20.960Z,80.77
2022-10-22T03:46:21.019Z,80.77
2022-10-22T03:47:21.086Z,80.66
2022-10-22T03:48:21.186Z,80.66
2022-10-22T03:49:21.291Z,80.66
2022-10-22T03:50:21.352Z,80.77
2022-10-22T03:51:21.410Z,80.77
2022-10-22T03:52:21.558Z,80.77
2022-10-22T03:53:21.603Z,80.80
2022-10-22T03:54:21.659Z,80.91
2022-10-22T03:55:21.791Z,81.01
2022-10-22T03:56:21.847Z,80.80
2022-10-22T03:57:21.895Z,80.71
2022-10-22T03:58:21.984Z,80.71
2022-10-22T03:59:22.085Z,80.60
2022-10-22T04:00:22.191Z,80.71
2022-10-22T04:01:22.355Z,80.60
2022-10-22T04:02:22.309Z,80.60
2022-10-22T04:03:22.423Z,80.60
2022-10-22T04:04:22.484Z,80.71
2022-10-22T04:05:22.555Z,80.91
2022-10-22T04:06:22.595Z,81.01
2022-10-22T04:07:22.705Z,81.01
2022-10-22T04:08:22.812Z,81.01
2022-10-22T04:09:22.874Z,81.11
2022-10-22T04:10:23.006Z,81.11
2022-10-22T04:11:23.055Z,81.11
2022-10-22T04:12:23.217Z,81.31
2022-10-22T04:13:23.217Z,81.21
2022-10-22T04:14:23.268Z,81.11
2022-10-22T04:15:23.339Z,81.21
2022-10-22T04:16:25.165Z,81.21
2022-10-22T04:17:23.509Z,81.21
2022-10-22T04:18:23.584Z,81.21
2022-10-22T04:19:23.761Z,81.11
2022-10-22T04:20:23.808Z,81.01
2022-10-22T04:21:23.878Z,80.80
2022-10-22T04:22:23.930Z,80.71
2022-10-22T04:23:24.053Z,80.50
2022-10-22T04:24:24.127Z,80.40
2022-10-22T04:25:24.221Z,80.50
2022-10-22T04:26:24.305Z,80.50
2022-10-22T04:27:24.434Z,80.50
2022-10-22T04:28:24.494Z,80.50
2022-10-22T04:29:24.651Z,80.50
2022-10-22T04:30:24.675Z,80.50
2022-10-22T04:31:24.753Z,80.40
2022-10-22T04:32:24.822Z,80.40
2022-10-22T04:33:24.925Z,80.40
2022-10-22T04:34:24.980Z,80.30
2022-10-22T04:36:25.155Z,80.30
2022-10-22T04:37:25.168Z,80.40
2022-10-22T04:38:25.264Z,80.50
2022-10-22T04:39:25.348Z,80.50
2022-10-22T04:40:25.436Z,80.50
2022-10-22T04:41:25.523Z,80.60
2022-10-22T04:42:25.574Z,80.71
2022-10-22T04:43:25.671Z,80.71
2022-10-22T04:44:25.759Z,80.71
2022-10-22T04:45:25.854Z,80.71
2022-10-22T04:46:25.904Z,80.71
2022-10-22T04:47:25.982Z,80.71
2022-10-22T04:48:26.090Z,80.71
2022-10-22T04:49:26.165Z,80.71
2022-10-22T04:50:26.267Z,80.40
2022-10-22T04:51:26.335Z,80.40
2022-10-22T04:52:26.412Z,80.50
2022-10-22T04:53:26.453Z,80.50
2022-10-22T04:54:29.083Z,80.60
2022-10-22T04:55:26.739Z,80.60
2022-10-22T04:56:26.690Z,80.50
2022-10-22T04:57:26.771Z,80.60
2022-10-22T04:58:26.856Z,80.60
2022-10-22T04:59:26.988Z,80.60
2022-10-22T05:00:27.056Z,80.71
2022-10-22T05:01:27.201Z,80.71
2022-10-22T05:02:27.166Z,80.71
2022-10-22T05:03:27.264Z,80.91
2022-10-22T05:04:27.362Z,80.80
2022-10-22T05:05:27.467Z,80.80
2022-10-22T05:06:27.539Z,80.71
2022-10-22T05:07:27.595Z,80.91
2022-10-22T05:08:27.681Z,81.11
2022-10-22T05:09:27.751Z,81.01
2022-10-22T05:10:27.840Z,81.01
2022-10-22T05:11:27.950Z,81.01
2022-10-22T05:12:28.013Z,81.31
2022-10-22T05:13:28.069Z,81.21
2022-10-22T05:14:28.141Z,81.21
2022-10-22T05:15:28.237Z,81.01
2022-10-22T05:16:28.347Z,81.11
2022-10-22T05:17:28.405Z,81.01
2022-10-22T05:18:28.467Z,81.01
2022-10-22T05:19:28.516Z,81.11
2022-10-22T05:20:28.629Z,81.11
2022-10-22T05:21:28.693Z,81.11
2022-10-22T05:22:28.783Z,81.21
2022-10-22T05:23:28.865Z,81.21
2022-10-22T05:24:28.964Z,81.21
2022-10-22T05:25:29.101Z,81.21
2022-10-22T05:26:29.125Z,81.21
2022-10-22T05:27:29.202Z,81.01
2022-10-22T05:28:29.316Z,81.11
2022-10-22T05:29:30.215Z,81.11
2022-10-22T05:32:32.253Z,81.01
2022-10-22T05:36:50.030Z,81.66
2022-10-22T05:37:52.106Z,81.66
2022-10-22T05:38:51.200Z,81.76
2022-10-22T05:40:01.671Z,81.86
2022-10-22T05:40:51.392Z,81.86
2022-10-22T05:44:19.199Z,81.35
2022-10-22T05:45:20.307Z,81.70
2022-10-22T05:52:28.346Z,81.84
2022-10-22T05:56:44.557Z,82.65
2022-10-22T05:57:45.647Z,82.45
2022-10-22T05:58:45.681Z,82.45
2022-10-22T05:59:45.767Z,82.45
2022-10-22T06:00:45.811Z,82.45
2022-10-22T06:01:45.973Z,82.24
2022-10-22T06:02:45.968Z,82.14
2022-10-22T06:03:46.063Z,82.14
2022-10-22T06:04:46.186Z,82.14
2022-10-22T06:05:46.243Z,82.00
2022-10-22T06:06:46.338Z,82.00
2022-10-22T06:07:46.486Z,82.00
2022-10-22T06:18:49.634Z,83.29
2022-10-22T06:20:48.548Z,83.29
2022-10-22T06:47:28.443Z,83.44
2022-10-22T07:17:51.773Z,85.00
2022-10-22T07:18:51.730Z,84.97
2022-10-22T07:22:19.366Z,84.97
2022-10-22T07:26:51.728Z,85.06
2022-10-22T07:37:09.292Z,85.47
2022-10-22T07:38:10.513Z,85.47
2022-10-22T07:39:10.292Z,85.58
2022-10-22T07:40:10.448Z,85.58
2022-10-22T07:41:10.471Z,85.43
2022-10-22T07:48:19.245Z,85.23
2022-10-22T07:49:20.271Z,85.33
2022-10-22T07:50:20.455Z,85.33
2022-10-22T07:54:10.924Z,85.13
2022-10-22T07:57:50.225Z,85.13
2022-10-22T08:06:33.012Z,85.33
2022-10-22T08:07:33.982Z,85.33
2022-10-22T08:08:34.200Z,85.23
2022-10-22T08:14:33.541Z,85.13
2022-10-22T08:21:15.926Z,85.23
2022-10-22T08:45:38.831Z,86.04
2022-10-22T09:34:45.834Z,86.98
2022-10-22T11:02:37.051Z,84.44
2022-10-22T11:03:38.249Z,84.44
2022-10-22T11:04:38.482Z,84.20
2022-10-22T11:08:05.645Z,83.35
2022-10-22T11:09:06.675Z,83.35
2022-10-22T11:10:06.742Z,83.45
2022-10-22T11:11:06.861Z,82.84
2022-10-22T11:12:07.002Z,82.54
2022-10-22T11:13:07.078Z,81.79
2022-10-22T11:14:06.998Z,80.58
2022-10-22T11:17:57.387Z,80.44
2022-10-22T11:18:58.461Z,80.54
2022-10-22T11:20:00.261Z,80.94
2022-10-22T11:20:58.596Z,80.24
2022-10-22T11:21:58.663Z,79.83
2022-10-22T11:23:18.285Z,79.90
2022-10-22T11:23:58.796Z,79.29
2022-10-22T11:24:58.924Z,78.48
2022-10-22T11:25:58.969Z,78.28
2022-10-22T11:26:59.014Z,78.04
2022-10-22T11:28:05.471Z,77.94
2022-10-22T11:28:59.164Z,77.94
2022-10-22T11:29:59.248Z,77.33
2022-10-22T11:30:59.414Z,76.72
2022-10-22T11:31:59.407Z,76.42
2022-10-22T11:32:59.501Z,75.57
2022-10-22T11:34:04.669Z,75.37
2022-10-22T11:34:59.675Z,74.77
2022-10-22T11:35:59.760Z,73.96
2022-10-22T12:10:24.262Z,72.99
2022-10-22T12:11:25.354Z,72.78
2022-10-22T12:12:25.379Z,71.67
2022-10-22T12:13:25.530Z,71.53
2022-10-22T12:14:25.543Z,71.73
2022-10-22T12:15:25.570Z,71.03
2022-10-22T12:16:32.457Z,70.59
2022-10-22T12:17:25.754Z,69.89
2022-10-22T12:18:25.840Z,70.19
2022-10-22T12:19:25.918Z,70.36
2022-10-22T12:20:26.011Z,70.06
2022-10-22T12:21:26.085Z,69.65
2022-10-22T12:22:26.186Z,69.15
2022-10-22T12:23:26.277Z,69.62
2022-10-22T12:24:26.351Z,70.22
2022-10-22T12:25:26.433Z,69.62
2022-10-22T12:26:26.646Z,69.42
2022-10-22T12:27:26.598Z,69.31
2022-10-22T12:28:26.749Z,69.08
2022-10-22T12:29:26.810Z,69.08
2022-10-22T12:30:26.819Z,69.59
2022-10-22T12:31:26.898Z,69.89
2022-10-22T12:32:26.966Z,70.19
2022-10-22T12:33:27.150Z,70.39
2022-10-22T12:34:27.140Z,69.99
2022-10-22T12:35:27.219Z,69.79
2022-10-22T12:36:27.293Z,69.99
2022-10-22T12:37:27.397Z,70.19
2022-10-22T12:38:27.485Z,69.89
2022-10-22T12:39:27.595Z,69.89
2022-10-22T12:40:27.633Z,69.89
2022-10-22T12:41:27.743Z,69.35
2022-10-22T12:42:27.784Z,69.25
2022-10-22T12:43:27.897Z,69.65
2022-10-22T12:44:28.011Z,69.35
2022-10-22T12:45:28.060Z,68.34
2022-10-22T12:46:28.152Z,68.34
2022-10-22T12:47:28.227Z,68.54
2022-10-22T12:48:28.330Z,67.84
2022-10-22T12:49:28.465Z,67.63
2022-10-22T12:50:28.477Z,67.84
2022-10-22T12:51:28.578Z,68.14
2022-10-22T12:52:28.636Z,67.84
2022-10-22T12:53:28.747Z,68.14
2022-10-22T12:54:28.773Z,68.54
2022-10-22T12:55:28.886Z,68.95
2022-10-22T12:56:28.932Z,69.05
2022-10-22T12:57:29.010Z,68.95
2022-10-22T12:58:29.107Z,68.44
2022-10-22T12:59:29.186Z,68.24
2022-10-22T13:00:29.283Z,67.94
2022-10-22T13:01:29.346Z,67.94
2022-10-22T13:02:29.470Z,68.04
2022-10-22T13:03:29.520Z,67.43
2022-10-22T13:04:29.591Z,67.43
2022-10-22T13:05:29.676Z,67.63
2022-10-22T13:06:29.750Z,67.94
2022-10-22T13:07:29.840Z,68.54
2022-10-22T13:08:29.947Z,68.65
2022-10-22T13:09:31.968Z,68.65
2022-10-22T13:10:30.121Z,68.65
2022-10-22T13:11:30.239Z,68.65
2022-10-22T13:12:30.282Z,68.81
2022-10-22T13:13:30.379Z,68.31
2022-10-22T13:14:30.504Z,67.30
2022-10-22T13:15:30.549Z,67.50
2022-10-22T13:16:30.693Z,67.80
2022-10-22T13:17:30.721Z,68.31
2022-10-22T13:18:30.810Z,68.11
2022-10-22T13:19:30.889Z,67.91
2022-10-22T13:20:30.953Z,67.60
2022-10-22T13:21:31.030Z,67.91
2022-10-22T13:22:31.114Z,67.80
2022-10-22T13:23:31.211Z,66.80
2022-10-22T13:24:31.321Z,66.80
2022-10-22T13:25:31.381Z,66.60
2022-10-22T13:26:31.453Z,66.39
2022-10-22T13:27:31.541Z,66.60
2022-10-22T13:28:31.682Z,66.70
2022-10-22T13:29:31.682Z,66.90
2022-10-22T13:30:31.759Z,67.00
2022-10-22T13:31:31.841Z,67.20
2022-10-22T13:32:31.934Z,67.20
2022-10-22T13:33:31.985Z,67.00
2022-10-22T13:34:32.059Z,67.20
2022-10-22T13:35:32.172Z,67.40
2022-10-22T13:36:32.214Z,67.60
2022-10-22T13:37:32.314Z,67.30
2022-10-22T13:38:32.432Z,67.60
2022-10-22T13:39:32.465Z,67.60
2022-10-22T13:40:32.553Z,67.40
2022-10-22T13:41:32.653Z,67.50
2022-10-22T13:42:32.728Z,67.20
2022-10-22T13:43:32.871Z,67.30
2022-10-22T13:44:32.943Z,67.10
2022-10-22T13:45:32.982Z,66.90
2022-10-22T13:46:33.081Z,66.60
2022-10-22T13:47:33.156Z,66.70
2022-10-22T13:48:33.248Z,66.80
2022-10-22T13:49:33.311Z,66.09
2022-10-22T13:50:33.409Z,65.79
2022-10-22T13:51:33.479Z,65.69
2022-10-22T13:52:33.559Z,65.49
2022-10-22T13:53:33.668Z,65.29
2022-10-22T13:54:33.702Z,65.69
2022-10-22T13:55:33.767Z,65.89
2022-10-22T13:56:33.913Z,66.09
2022-10-22T13:57:33.995Z,66.30
2022-10-22T13:58:34.047Z,66.19
2022-10-22T13:59:34.082Z,66.30
2022-10-22T14:00:34.236Z,66.30
2022-10-22T14:01:34.261Z,66.50
2022-10-22T14:02:34.326Z,66.80
2022-10-22T14:03:34.402Z,66.90
2022-10-22T14:04:34.474Z,66.80
2022-10-22T14:05:34.608Z,66.39
2022-10-22T14:07:34.742Z,66.50
2022-10-22T14:08:34.885Z,66.30
2022-10-22T14:09:34.932Z,65.89
2022-10-22T14:10:35.007Z,65.79
2022-10-22T14:11:35.074Z,65.79
2022-10-22T14:12:35.153Z,65.99
2022-10-22T14:13:35.240Z,66.19
2022-10-22T14:14:35.319Z,66.30
2022-10-22T14:15:35.403Z,66.39
2022-10-22T14:16:35.480Z,66.50
2022-10-22T14:17:35.554Z,66.70
2022-10-22T14:18:35.661Z,66.60
2022-10-22T14:19:35.782Z,65.99
2022-10-22T14:20:35.843Z,65.89
2022-10-22T14:21:35.942Z,65.39
2022-10-22T14:22:35.980Z,65.29
2022-10-22T14:23:36.079Z,65.39
2022-10-22T14:24:36.132Z,65.29
2022-10-22T14:25:36.260Z,65.39
2022-10-22T14:26:36.296Z,65.39
2022-10-22T14:27:36.393Z,64.98
2022-10-22T14:28:41.185Z,64.98
2022-10-22T14:29:36.530Z,65.19
2022-10-22T14:30:36.602Z,65.49
2022-10-22T14:31:36.707Z,65.79
2022-10-22T14:32:36.770Z,65.99
2022-10-22T14:33:36.866Z,66.30
2022-10-22T14:34:37.943Z,66.39
2022-10-22T14:35:37.046Z,66.60
2022-10-22T14:36:37.094Z,66.60
2022-10-22T14:37:37.174Z,66.60
2022-10-22T14:38:37.269Z,66.60
2022-10-22T14:39:37.342Z,66.70
2022-10-22T14:40:37.423Z,66.80
2022-10-22T14:41:37.528Z,66.70
2022-10-22T14:42:37.584Z,66.80
2022-10-22T14:43:37.655Z,67.00
2022-10-22T14:44:37.730Z,67.20
2022-10-22T14:45:37.807Z,67.40
2022-10-22T14:46:37.901Z,67.71
2022-10-22T14:47:37.987Z,67.91
2022-10-22T14:48:38.113Z,68.01
2022-10-22T14:49:38.167Z,68.21
2022-10-22T14:50:38.306Z,68.21
2022-10-22T14:51:38.393Z,68.31
2022-10-22T14:52:38.502Z,68.51
2022-10-22T14:53:38.572Z,68.51
2022-10-22T14:54:38.616Z,68.61
2022-10-22T14:55:38.688Z,68.61
2022-10-22T14:56:38.783Z,68.74
2022-10-22T14:57:39.184Z,68.74
2022-10-22T14:58:38.981Z,68.85
2022-10-22T14:59:39.091Z,68.85
2022-10-22T15:00:39.120Z,68.85
2022-10-22T15:01:39.212Z,68.95
2022-10-22T15:02:39.576Z,69.05
2022-10-22T15:03:39.362Z,69.05
2022-10-22T15:04:39.413Z,69.15
2022-10-22T15:05:39.481Z,69.15
2022-10-22T15:06:39.620Z,69.15
2022-10-22T15:07:39.991Z,69.25
2022-10-22T15:08:39.835Z,69.05
2022-10-22T15:09:39.868Z,68.85
2022-10-22T15:10:40.229Z,68.95
2022-10-22T15:11:39.992Z,68.95
2022-10-22T15:12:40.091Z,68.95
2022-10-22T15:13:40.191Z,69.05
2022-10-22T15:14:47.961Z,68.95
2022-10-22T15:15:40.376Z,68.85
2022-10-22T15:16:40.416Z,68.85
2022-10-22T15:17:40.933Z,68.85
2022-10-22T15:18:40.659Z,68.95
2022-10-22T15:19:40.668Z,68.95
2022-10-22T15:20:40.753Z,68.95
2022-10-22T15:22:41.282Z,68.95
2022-10-22T15:23:41.014Z,68.95
2022-10-22T15:24:41.076Z,69.05
2022-10-22T15:25:41.132Z,69.05
2022-10-22T15:26:41.209Z,69.08
2022-10-22T15:27:41.296Z,69.08
2022-10-22T15:28:41.399Z,69.08
2022-10-22T15:29:41.548Z,69.08
2022-10-22T15:30:41.584Z,68.98
2022-10-22T15:31:41.635Z,68.98
2022-10-22T15:32:42.153Z,68.98
2022-10-22T15:33:41.877Z,68.98
2022-10-22T15:34:41.872Z,68.98
2022-10-22T15:35:41.942Z,68.88
2022-10-22T15:36:42.017Z,68.88
2022-10-22T15:37:42.104Z,68.98
2022-10-22T15:38:42.215Z,68.98
2022-10-22T15:39:42.252Z,68.98
2022-10-22T15:40:42.350Z,68.88
2022-10-22T15:41:42.436Z,68.88
2022-10-22T15:42:43.028Z,68.98
2022-10-22T15:43:42.633Z,69.08
2022-10-22T15:44:42.696Z,69.18
2022-10-22T15:45:42.738Z,69.28
2022-10-22T15:46:42.867Z,69.38
2022-10-22T15:47:46.076Z,69.48
2022-10-22T15:48:43.029Z,69.59
2022-10-22T15:49:43.068Z,69.68
2022-10-22T15:50:43.148Z,69.79
2022-10-22T15:51:43.288Z,69.99
2022-10-22T15:52:43.333Z,70.09
2022-10-22T15:53:43.443Z,70.19
2022-10-22T15:54:43.503Z,70.29
2022-10-22T15:55:43.598Z,70.39
2022-10-22T15:56:43.633Z,70.49
2022-10-22T15:57:44.469Z,70.59
2022-10-22T15:58:43.781Z,70.62
2022-10-22T15:59:43.866Z,70.73
2022-10-22T16:00:43.960Z,70.73
2022-10-22T16:01:44.000Z,70.83
2022-10-22T16:02:44.077Z,70.83
2022-10-22T16:03:44.156Z,70.83
2022-10-22T16:04:44.272Z,70.83
2022-10-22T16:05:44.310Z,70.93
2022-10-22T16:06:44.388Z,70.93
2022-10-22T16:07:44.700Z,70.93
2022-10-22T16:08:44.670Z,71.03
2022-10-22T16:09:44.630Z,71.13
2022-10-22T16:10:44.768Z,71.13
2022-10-22T16:11:44.853Z,71.26
2022-10-22T16:12:44.987Z,71.26
2022-10-22T16:13:44.987Z,71.26
2022-10-22T16:14:45.083Z,71.37
2022-10-22T16:15:45.187Z,71.37
2022-10-22T16:16:45.219Z,71.37
2022-10-22T16:17:45.310Z,71.47
2022-10-22T16:18:45.411Z,71.47
2022-10-22T16:19:45.450Z,71.47
2022-10-22T16:20:45.530Z,71.37
2022-10-22T16:21:45.602Z,71.37
2022-10-22T16:22:45.688Z,71.37
2022-10-22T16:23:45.803Z,71.37
2022-10-22T16:24:45.856Z,71.47
2022-10-22T16:25:45.932Z,71.50
2022-10-22T16:26:46.022Z,71.50
2022-10-22T16:27:46.097Z,71.50
2022-10-22T16:28:46.174Z,71.60
2022-10-22T16:29:46.261Z,71.60
2022-10-22T16:30:46.344Z,71.70
2022-10-22T16:31:46.420Z,71.70
2022-10-22T16:32:46.491Z,71.70
2022-10-22T16:33:50.001Z,71.80
2022-10-22T16:34:46.650Z,71.80
2022-10-22T16:35:46.725Z,71.80
2022-10-22T16:36:47.012Z,71.80
2022-10-22T16:37:46.885Z,71.80
2022-10-22T16:38:46.997Z,71.80
2022-10-22T16:39:47.034Z,71.80
2022-10-22T16:40:47.101Z,71.91
2022-10-22T16:41:47.229Z,71.91
2022-10-22T16:42:47.321Z,71.94
2022-10-22T16:43:47.382Z,71.94
2022-10-22T16:44:47.427Z,71.94
2022-10-22T16:45:47.511Z,71.94
2022-10-22T16:46:47.604Z,71.94
2022-10-22T16:47:47.678Z,71.84
2022-10-22T16:48:47.857Z,71.84
2022-10-22T16:49:47.861Z,71.84
2022-10-22T16:50:47.944Z,71.73
2022-10-22T16:51:48.053Z,71.64
2022-10-22T16:52:48.137Z,71.64
2022-10-22T16:53:48.234Z,71.64
2022-10-22T16:54:48.327Z,71.73
2022-10-22T16:55:48.393Z,71.73
2022-10-22T16:56:48.488Z,71.73
2022-10-22T16:57:48.584Z,71.84
2022-10-22T16:58:48.678Z,71.84
2022-10-22T16:59:48.725Z,71.97
2022-10-22T17:00:48.849Z,71.97
2022-10-22T17:01:48.856Z,71.87
2022-10-22T17:02:48.987Z,71.77
2022-10-22T17:03:49.069Z,71.67
2022-10-22T17:04:49.118Z,71.67
2022-10-22T17:05:49.189Z,71.57
2022-10-22T17:06:49.275Z,71.67
2022-10-22T17:07:49.362Z,71.67
2022-10-22T17:08:49.536Z,71.77
2022-10-22T17:09:49.526Z,71.77
2022-10-22T17:10:50.512Z,71.77
2022-10-22T17:11:51.050Z,71.77
2022-10-22T17:17:00.384Z,71.91
2022-10-22T17:18:01.402Z,71.91
2022-10-22T17:19:01.436Z,71.94
2022-10-22T17:20:01.549Z,72.04
2022-10-22T17:21:01.578Z,72.04
2022-10-22T17:22:01.658Z,71.94
2022-10-22T17:23:01.742Z,71.94
2022-10-22T17:24:01.860Z,71.84
2022-10-22T17:25:01.925Z,71.84
2022-10-22T17:26:02.018Z,71.94
2022-10-22T17:27:02.107Z,71.94
2022-10-22T17:28:02.207Z,71.84
2022-10-22T17:29:02.323Z,71.84
2022-10-22T17:30:02.429Z,71.84
2022-10-22T17:31:02.451Z,71.84
2022-10-22T17:32:02.534Z,71.84
2022-10-22T17:33:02.617Z,71.84
2022-10-22T17:34:02.726Z,71.84
2022-10-22T17:35:02.826Z,71.73
2022-10-22T17:36:02.885Z,71.73
2022-10-22T17:37:02.986Z,71.84
2022-10-22T17:38:03.077Z,71.84
2022-10-22T17:39:03.116Z,71.84
2022-10-22T17:40:03.233Z,71.94
2022-10-22T17:41:04.426Z,71.84
2022-10-22T17:42:03.342Z,71.73
2022-10-22T17:43:03.420Z,71.73
2022-10-22T17:44:03.497Z,71.64
2022-10-22T17:45:03.598Z,71.64
2022-10-22T17:46:03.672Z,71.64
2022-10-22T17:47:03.747Z,71.64
2022-10-22T17:48:03.836Z,71.64
2022-10-22T17:49:03.929Z,71.73
2022-10-22T17:50:04.033Z,71.67
2022-10-22T17:51:04.108Z,71.67
2022-10-22T17:52:04.201Z,71.67
2022-10-22T17:53:04.279Z,71.57
2022-10-22T17:54:07.373Z,71.67
2022-10-22T17:55:04.519Z,71.67
2022-10-22T17:56:04.541Z,71.57
2022-10-22T17:57:04.639Z,71.57
2022-10-22T17:58:04.719Z,71.67
2022-10-22T17:59:04.797Z,71.67
2022-10-22T18:00:04.909Z,71.67
2022-10-22T18:01:04.994Z,71.57
2022-10-22T18:02:05.039Z,71.57
2022-10-22T18:03:05.113Z,71.70
2022-10-22T18:04:05.205Z,71.70
2022-10-22T18:05:05.307Z,71.67
2022-10-22T18:06:05.399Z,71.60
2022-10-22T18:07:05.466Z,71.50
2022-10-22T18:08:07.839Z,71.40
2022-10-22T18:09:05.594Z,71.40
2022-10-22T18:10:05.732Z,71.09
2022-10-22T18:11:05.789Z,71.20
2022-10-22T18:12:05.849Z,71.30
2022-10-22T18:13:05.969Z,71.40
2022-10-22T18:14:06.112Z,71.40
2022-10-22T18:15:06.147Z,71.50
2022-10-22T18:16:06.189Z,71.64
2022-10-22T18:17:06.340Z,71.73
2022-10-22T18:18:06.368Z,71.84
2022-10-22T18:19:06.864Z,71.84
2022-10-22T18:20:06.653Z,71.94
2022-10-22T18:21:06.653Z,72.04
2022-10-22T18:22:06.741Z,72.14
2022-10-22T18:23:06.794Z,72.14
2022-10-22T18:24:06.884Z,72.24
2022-10-22T18:25:06.968Z,72.24
2022-10-22T18:26:07.050Z,72.34
2022-10-22T18:27:07.104Z,72.34
2022-10-22T18:28:07.186Z,72.34
2022-10-22T18:29:07.244Z,72.34